Time;durP1;ratioP1;P1;durP2;ratioP2;P2;SDS_P1;SDS_P2;PMS_P1;PMS_P2;Temp;Humidity;BMP_temperature;BMP_pressure;BME280_temperature;BME280_humidity;BME280_pressure;Samples;Min_cycle;Max_cycle;Signal;HPM_P1;HPM_P2
2023/08/04 00:01:16;;;;;;;3.17;1.70;;;;;;;17.22;93.81;98740.97;5051843;28;20155;-82
2023/08/04 00:03:41;;;;;;;4.95;1.92;;;;;;;17.34;93.88;98762.75;5051687;28;20154;-82
2023/08/04 00:06:10;;;;;;;3.72;2.05;;;;;;;17.29;95.24;98780.75;5052273;28;20028;-81
2023/08/04 00:08:36;;;;;;;3.67;2.13;;;;;;;16.91;95.49;98721.81;5051472;28;20148;-82
2023/08/04 00:11:02;;;;;;;4.43;1.95;;;;;;;17.00;95.96;98749.09;5051664;28;20049;-82
2023/08/04 00:13:28;;;;;;;2.88;1.75;;;;;;;17.11;96.57;98775.31;5051709;28;20048;-81
2023/08/04 00:15:53;;;;;;;2.85;1.63;;;;;;;17.10;96.32;98778.91;5051752;28;20025;-82
2023/08/04 00:18:18;;;;;;;2.42;1.70;;;;;;;17.04;96.52;98774.19;5051596;28;20080;-81
2023/08/04 00:20:44;;;;;;;3.30;1.73;;;;;;;16.84;96.52;98750.44;5052114;28;20108;-81
2023/08/04 00:23:09;;;;;;;3.20;1.58;;;;;;;16.94;96.11;98758.38;5051912;28;20100;-82
2023/08/04 00:25:34;;;;;;;4.13;2.03;;;;;;;17.04;96.34;98779.44;5033879;28;20028;-82
2023/08/04 00:28:00;;;;;;;3.42;1.80;;;;;;;16.93;96.45;98770.66;5051663;28;20032;-81
2023/08/04 00:30:26;;;;;;;2.47;1.77;;;;;;;17.01;96.35;98779.69;5051410;28;20025;-81
2023/08/04 00:32:51;;;;;;;2.47;1.63;;;;;;;16.79;97.08;98759.69;5051452;28;20033;-81
2023/08/04 00:35:17;;;;;;;2.05;1.58;;;;;;;16.85;97.34;98765.25;5033746;28;20025;-82
2023/08/04 00:37:42;;;;;;;1.65;1.52;;;;;;;16.74;97.55;98748.75;5051479;28;20025;-81
2023/08/04 00:40:08;;;;;;;3.47;1.80;;;;;;;16.62;98.40;98756.69;5051537;28;20040;-82
2023/08/04 00:42:34;;;;;;;5.85;2.40;;;;;;;16.44;98.68;98750.38;5051211;28;20045;-81
2023/08/04 00:44:59;;;;;;;5.20;2.25;;;;;;;16.40;98.78;98748.97;5051367;28;20380;-81
2023/08/04 00:47:25;;;;;;;2.85;1.88;;;;;;;16.65;98.89;98787.97;5051093;28;20104;-82
2023/08/04 00:49:53;;;;;;;4.25;2.00;;;;;;;16.56;98.62;98770.38;5051556;28;20087;-82
2023/08/04 00:52:19;;;;;;;2.65;1.60;;;;;;;16.56;98.69;98773.00;5051331;28;20031;-82
2023/08/04 00:54:46;;;;;;;2.83;1.88;;;;;;;16.72;98.79;98793.53;5051456;28;20108;-82
2023/08/04 00:57:11;;;;;;;3.17;1.88;;;;;;;16.51;99.01;98762.00;5033464;28;20025;-82
2023/08/04 00:59:36;;;;;;;4.20;2.35;;;;;;;16.46;99.23;98772.09;5051070;28;20032;-81
2023/08/04 01:02:02;;;;;;;3.10;1.60;;;;;;;16.60;99.45;98778.81;5051200;28;20033;-82
2023/08/04 01:04:28;;;;;;;2.10;1.50;;;;;;;16.41;99.32;98742.75;5051047;28;20086;-82
2023/08/04 01:07:14;;;;;;;3.30;1.95;;;;;;;16.69;99.88;98793.81;5051170;28;20025;-81
2023/08/04 01:09:49;;;;;;;4.82;2.38;;;;;;;16.61;99.86;98780.50;5053904;28;20037;-82
2023/08/04 01:12:55;;;;;;;2.25;1.60;;;;;;;16.60;99.76;98795.44;5036884;28;20422;-81
2023/08/04 01:15:24;;;;;;;2.83;1.80;;;;;;;16.51;100.00;98790.94;4973398;28;20138;-82
2023/08/04 01:17:49;;;;;;;4.00;1.92;;;;;;;16.36;100.00;98763.34;4973799;28;20513;-82
2023/08/04 01:20:14;;;;;;;4.82;2.15;;;;;;;16.49;100.00;98784.16;4973502;28;20062;-81
2023/08/04 01:22:40;;;;;;;2.10;1.70;;;;;;;16.43;100.00;98783.72;4973123;28;20034;-81
2023/08/04 01:25:06;;;;;;;4.13;2.10;;;;;;;16.53;100.00;98806.59;4973528;28;20038;-82
2023/08/04 01:27:47;;;;;;;3.45;1.75;;;;;;;16.44;100.00;98803.78;4973184;28;20078;-82
2023/08/04 01:30:20;;;;;;;5.50;2.03;;;;;;;16.21;100.00;98774.16;4973287;28;20038;-81
2023/08/04 01:32:46;;;;;;;3.67;1.98;;;;;;;16.40;100.00;98809.44;4972990;28;20045;-81
2023/08/04 01:35:12;;;;;;;1.92;1.73;;;;;;;16.14;100.00;98791.41;4973559;28;20527;-82
2023/08/04 01:37:38;;;;;;;3.60;1.98;;;;;;;16.05;100.00;98775.56;4973107;28;20030;-82
2023/08/04 01:40:03;;;;;;;2.00;1.80;;;;;;;16.07;100.00;98798.13;4956944;28;20479;-82
2023/08/04 01:42:29;;;;;;;5.05;2.38;;;;;;;16.12;100.00;98816.13;4972832;28;20038;-81
2023/08/04 01:44:54;;;;;;;3.20;1.90;;;;;;;15.90;100.00;98789.00;4972873;28;20437;-82
2023/08/04 01:47:19;;;;;;;4.88;2.03;;;;;;;16.10;100.00;98807.56;4973137;28;20023;-82
2023/08/04 01:49:45;;;;;;;4.13;2.00;;;;;;;15.97;100.00;98797.25;4972842;28;20035;-82
2023/08/04 01:52:10;;;;;;;3.38;2.00;;;;;;;16.12;100.00;98813.50;5016115;28;20507;-82
2023/08/04 01:54:35;;;;;;;5.13;2.30;;;;;;;16.12;100.00;98816.97;5054655;28;20519;-81
2023/08/04 01:57:00;;;;;;;3.28;2.10;;;;;;;15.92;100.00;98781.81;5054654;28;20036;-81
2023/08/04 01:59:26;;;;;;;3.38;2.05;;;;;;;15.91;100.00;98774.09;5054065;28;20052;-82
2023/08/04 02:01:51;;;;;;;2.58;1.90;;;;;;;15.96;100.00;98790.28;5054872;28;20079;-81
2023/08/04 02:04:16;;;;;;;5.25;2.85;;;;;;;16.12;100.00;98821.38;5055046;28;20028;-82
2023/08/04 02:06:42;;;;;;;3.88;2.15;;;;;;;15.92;100.00;98786.25;5055665;28;20056;-81
2023/08/04 02:09:07;;;;;;;3.38;1.85;;;;;;;15.90;100.00;98789.00;5055684;28;20033;-81
2023/08/04 02:11:33;;;;;;;4.35;2.10;;;;;;;15.89;100.00;98792.59;5057288;28;20021;-81
2023/08/04 02:13:58;;;;;;;3.10;1.88;;;;;;;16.07;100.00;98831.44;5059847;28;20041;-81
2023/08/04 02:16:24;;;;;;;3.30;2.25;;;;;;;16.05;100.00;98833.34;5075536;28;20040;-81
2023/08/04 02:18:49;;;;;;;4.20;2.10;;;;;;;15.90;100.00;98809.19;5075084;28;20032;-82
2023/08/04 02:21:15;;;;;;;4.55;1.80;;;;;;;15.85;100.00;98814.00;5075804;28;20072;-82
2023/08/04 02:23:40;;;;;;;2.95;2.13;;;;;;;15.84;100.00;98825.44;5071378;28;20032;-82
2023/08/04 02:26:05;;;;;;;4.50;2.22;;;;;;;15.81;100.00;98817.81;5071050;28;20374;-81
2023/08/04 02:28:31;;;;;;;3.70;2.25;;;;;;;15.95;100.00;98844.63;5063890;28;20388;-82
2023/08/04 02:30:58;;;;;;;3.28;2.03;;;;;;;16.02;100.00;98852.00;5053923;28;20365;-82
2023/08/04 02:33:24;;;;;;;3.10;2.30;;;;;;;15.98;100.00;98846.16;5053355;28;20044;-82
2023/08/04 02:35:49;;;;;;;3.88;2.03;;;;;;;16.01;100.00;98850.31;5053378;28;20368;-82
2023/08/04 02:38:14;;;;;;;3.08;1.98;;;;;;;15.98;100.00;98850.59;5053357;28;20072;-82
2023/08/04 02:40:40;;;;;;;2.92;1.77;;;;;;;15.93;100.00;98846.53;5053018;28;20032;-82
2023/08/04 02:43:05;;;;;;;3.85;1.88;;;;;;;16.05;100.00;98863.06;5053532;28;20024;-82
2023/08/04 02:45:31;;;;;;;3.03;1.70;;;;;;;15.63;100.00;98796.47;5052914;28;20086;-81
2023/08/04 02:47:56;;;;;;;3.15;1.95;;;;;;;16.11;100.00;98877.53;5053032;28;20384;-82
2023/08/04 02:50:21;;;;;;;1.73;1.60;;;;;;;15.80;100.00;98817.00;5053003;28;20116;-82
2023/08/04 02:52:47;;;;;;;2.42;1.90;;;;;;;16.13;100.00;98855.41;5052974;28;20033;-82
2023/08/04 02:55:12;;;;;;;4.38;2.08;;;;;;;15.96;100.00;98830.50;5052915;28;20021;-82
2023/08/04 02:57:38;;;;;;;2.75;1.58;;;;;;;16.10;100.00;98845.16;5052852;28;20357;-82
2023/08/04 03:00:04;;;;;;;3.35;1.80;;;;;;;16.32;100.00;98888.06;5052786;28;20470;-82
2023/08/04 03:02:30;;;;;;;4.10;2.00;;;;;;;16.27;100.00;98885.81;5052332;28;20029;-81
2023/08/04 03:04:55;;;;;;;5.60;2.22;;;;;;;16.33;100.00;98882.66;5052566;28;20024;-82
2023/08/04 03:07:21;;;;;;;2.00;1.60;;;;;;;16.06;100.00;98833.25;5052847;28;20037;-82
2023/08/04 03:09:46;;;;;;;2.65;1.80;;;;;;;16.28;100.00;98863.84;5052553;28;20349;-82
2023/08/04 03:12:11;;;;;;;2.63;2.10;;;;;;;16.30;100.00;98868.94;5052740;28;20458;-82
2023/08/04 03:14:37;;;;;;;2.90;2.00;;;;;;;16.13;100.00;98852.78;5052267;28;20045;-81
2023/08/04 03:17:02;;;;;;;3.60;2.30;;;;;;;16.23;100.00;98870.44;5034492;28;20047;-82
2023/08/04 03:19:28;;;;;;;5.05;2.10;;;;;;;16.36;100.00;98892.94;5052416;28;20050;-82
2023/08/04 03:21:53;;;;;;;2.85;2.03;;;;;;;16.17;100.00;98864.69;5052492;28;20032;-82
2023/08/04 03:24:18;;;;;;;5.60;1.92;;;;;;;16.16;100.00;98852.53;5052822;28;20049;-82
2023/08/04 03:26:44;;;;;;;2.45;1.73;;;;;;;16.32;100.00;98874.94;5052091;28;20077;-82
2023/08/04 03:29:10;;;;;;;2.97;1.80;;;;;;;16.35;100.00;98880.75;5052272;28;20457;-82
2023/08/04 03:31:35;;;;;;;3.17;1.70;;;;;;;16.38;100.00;98890.16;5051435;28;20033;-81
2023/08/04 03:34:00;;;;;;;1.60;1.50;;;;;;;16.35;100.00;98887.78;5052218;28;20068;-82
2023/08/04 03:36:26;;;;;;;3.33;1.55;;;;;;;16.50;100.00;98897.03;5052392;28;20152;-81
2023/08/04 03:38:51;;;;;;;5.78;1.33;;;;;;;16.36;100.00;98864.03;5052116;28;20056;-82
2023/08/04 03:41:17;;;;;;;1.58;1.27;;;;;;;16.53;100.00;98886.28;5052433;28;20108;-82
2023/08/04 03:43:42;;;;;;;2.67;1.42;;;;;;;16.65;100.00;98902.84;5051934;28;20403;-82
2023/08/04 03:46:07;;;;;;;2.38;1.40;;;;;;;16.65;100.00;98894.94;5052082;28;20502;-82
2023/08/04 03:48:33;;;;;;;1.58;1.40;;;;;;;16.61;100.00;98870.69;5051701;28;20017;-82
2023/08/04 03:50:58;;;;;;;4.13;1.60;;;;;;;16.52;100.00;98850.44;5052210;28;20048;-82
2023/08/04 03:53:23;;;;;;;2.08;1.13;;;;;;;16.76;100.00;98888.81;5052476;28;20033;-81
2023/08/04 03:55:49;;;;;;;2.75;1.30;;;;;;;16.55;100.00;98844.09;5034006;28;20392;-82
2023/08/04 03:58:14;;;;;;;3.58;1.60;;;;;;;16.66;100.00;98868.50;5051867;28;20477;-82
2023/08/04 04:00:39;;;;;;;3.22;1.50;;;;;;;16.68;100.00;98866.56;5051669;28;20029;-82
2023/08/04 04:03:05;;;;;;;1.85;1.25;;;;;;;16.96;100.00;98895.84;5051753;28;20045;-82
2023/08/04 04:05:30;;;;;;;1.88;1.40;;;;;;;16.75;100.00;98845.06;5052476;28;20083;-81
2023/08/04 04:07:56;;;;;;;1.98;1.50;;;;;;;16.90;100.00;98864.81;5052014;28;20031;-82
2023/08/04 04:10:21;;;;;;;2.17;1.65;;;;;;;16.93;100.00;98875.06;5051892;28;20071;-82
2023/08/04 04:12:46;;;;;;;2.30;1.58;;;;;;;17.10;100.00;98905.19;5033544;28;20526;-82
2023/08/04 04:15:12;;;;;;;2.92;1.85;;;;;;;16.95;100.00;98894.19;5051803;28;20040;-82
2023/08/04 04:17:37;;;;;;;2.45;1.80;;;;;;;16.95;100.00;98894.19;5051484;28;20035;-81
2023/08/04 04:20:03;;;;;;;2.25;1.73;;;;;;;17.03;100.00;98911.97;5051926;28;20017;-82
2023/08/04 04:22:30;;;;;;;4.15;1.83;;;;;;;17.03;100.00;98920.69;5051859;28;20490;-82
2023/08/04 04:24:55;;;;;;;4.63;2.03;;;;;;;16.69;100.00;98863.00;5051550;28;20066;-82
2023/08/04 04:27:21;;;;;;;2.53;1.90;;;;;;;17.01;100.00;98929.66;5051693;28;20029;-82
2023/08/04 04:29:46;;;;;;;3.78;1.70;;;;;;;17.03;100.00;98948.78;5051397;28;20028;-82
2023/08/04 04:32:11;;;;;;;2.10;1.63;;;;;;;16.94;100.00;98942.50;5051534;28;20048;-82
2023/08/04 04:34:37;;;;;;;1.92;1.50;;;;;;;16.69;100.00;98901.63;5033797;28;20032;-82
2023/08/04 04:37:02;;;;;;;3.03;1.58;;;;;;;16.80;100.00;98916.50;5033859;28;20064;-82
2023/08/04 04:39:28;;;;;;;2.33;1.50;;;;;;;17.01;100.00;98941.00;5051700;28;20021;-81
2023/08/04 04:41:53;;;;;;;1.77;1.40;;;;;;;17.09;100.00;98938.56;5051892;28;20043;-82
2023/08/04 04:44:18;;;;;;;2.42;1.60;;;;;;;16.92;100.00;98894.44;5055180;28;20029;-82
2023/08/04 04:46:44;;;;;;;3.03;1.75;;;;;;;16.88;100.00;98906.19;5054968;28;20021;-82
2023/08/04 04:49:09;;;;;;;2.38;1.70;;;;;;;16.88;100.00;98903.56;5055160;28;20461;-81
2023/08/04 04:51:35;;;;;;;1.75;1.50;;;;;;;17.01;100.00;98912.06;5055189;28;20456;-81
2023/08/04 04:54:00;;;;;;;4.20;1.50;;;;;;;17.01;100.00;98913.88;5055393;28;20401;-81
2023/08/04 04:56:25;;;;;;;3.65;1.67;;;;;;;16.85;100.00;98895.91;5055188;28;20036;-81
2023/08/04 04:58:51;;;;;;;2.28;1.58;;;;;;;16.97;100.00;98902.75;5055256;28;20032;-82
2023/08/04 05:01:16;;;;;;;3.83;2.05;;;;;;;17.07;100.00;98911.56;5055101;28;20391;-81
2023/08/04 05:03:41;;;;;;;4.00;1.65;;;;;;;17.26;100.00;98939.75;5054641;28;20078;-82
2023/08/04 05:06:07;;;;;;;2.80;1.58;;;;;;;17.28;100.00;98929.13;5055537;28;20025;-82
2023/08/04 05:08:32;;;;;;;2.20;1.38;;;;;;;17.36;100.00;98942.44;5055914;28;20060;-82
2023/08/04 05:10:58;;;;;;;2.67;1.40;;;;;;;17.36;100.00;98943.28;5055507;28;20036;-82
2023/08/04 05:13:23;;;;;;;2.15;1.52;;;;;;;17.38;100.00;98943.16;5055254;28;20084;-81
2023/08/04 05:15:49;;;;;;;3.42;1.55;;;;;;;17.42;100.00;98947.19;5054757;28;20051;-82
2023/08/04 05:18:15;;;;;;;3.17;1.30;;;;;;;17.50;100.00;98949.16;5054712;28;20056;-82
2023/08/04 05:20:45;;;;;;;2.60;1.70;;;;;;;17.42;100.00;98926.94;5054551;28;20028;-82
2023/08/04 05:23:10;;;;;;;3.30;1.85;;;;;;;17.49;100.00;98931.66;5036769;28;20029;-81
2023/08/04 05:25:36;;;;;;;4.22;1.38;;;;;;;17.59;99.60;98930.75;5054926;28;20028;-82
2023/08/04 05:28:22;;;;;;;4.88;1.90;;;;;;;17.64;99.36;98935.63;5054518;28;20037;-82
2023/08/04 05:30:49;;;;;;;1.60;1.30;;;;;;;17.89;98.50;98972.03;5054553;28;20492;-81
2023/08/04 05:33:14;;;;;;;2.83;1.35;;;;;;;18.08;97.78;98986.25;5054847;28;20498;-82
2023/08/04 05:35:44;;;;;;;1.45;1.20;;;;;;;18.04;97.30;98961.97;5054426;28;20021;-81
2023/08/04 05:38:09;;;;;;;3.13;1.30;;;;;;;18.18;96.46;98968.66;5054361;28;20059;-81
2023/08/04 05:40:34;;;;;;;3.03;1.88;;;;;;;18.36;95.87;98974.06;5036424;28;20024;-82
2023/08/04 05:43:00;;;;;;;1.50;1.10;;;;;;;18.52;94.92;98979.63;5054019;28;20086;-81
2023/08/04 05:45:25;;;;;;;1.15;1.10;;;;;;;18.71;94.33;98973.59;5053980;28;20021;-81
2023/08/04 05:47:50;;;;;;;3.20;1.23;;;;;;;18.96;93.64;98980.06;5054266;28;20029;-82
2023/08/04 05:50:16;;;;;;;3.03;1.25;;;;;;;19.14;93.42;98957.25;5054125;28;20063;-82
2023/08/04 05:52:41;;;;;;;2.08;1.35;;;;;;;19.44;92.62;98979.13;5054184;28;20056;-81
2023/08/04 05:55:07;;;;;;;1.55;1.40;;;;;;;19.64;91.34;98969.34;5054410;28;20512;-82
2023/08/04 05:57:32;;;;;;;1.98;1.55;;;;;;;19.83;90.37;98982.47;5055372;28;20114;-81
2023/08/04 05:59:57;;;;;;;4.78;1.30;;;;;;;19.93;90.25;98969.19;5053946;28;20355;-81
2023/08/04 06:02:23;;;;;;;1.58;1.20;;;;;;;20.01;90.08;98927.00;5054604;28;20048;-81
2023/08/04 06:04:48;;;;;;;1.63;1.33;;;;;;;20.62;89.13;98968.63;5053873;28;20052;-81
2023/08/04 06:07:13;;;;;;;3.20;1.55;;;;;;;21.02;87.64;98971.72;5054077;28;20044;-82
2023/08/04 06:09:39;;;;;;;2.00;1.20;;;;;;;21.63;86.21;98994.66;5036311;28;20025;-82
2023/08/04 06:12:04;;;;;;;1.58;1.15;;;;;;;21.72;84.08;98969.03;5054141;28;20025;-81
2023/08/04 06:14:30;;;;;;;1.45;1.20;;;;;;;22.19;82.64;99008.34;5054034;28;20480;-81
2023/08/04 06:16:55;;;;;;;2.58;1.30;;;;;;;22.15;82.18;98960.09;5035863;28;20021;-82
2023/08/04 06:19:20;;;;;;;1.88;1.35;;;;;;;22.44;81.32;98972.91;5054104;28;20067;-81
2023/08/04 06:21:46;;;;;;;2.17;1.48;;;;;;;22.51;80.55;98986.38;5053522;28;20032;-81
2023/08/04 06:24:25;;;;;;;2.15;1.50;;;;;;;22.29;81.35;98969.22;5053713;28;20414;-81
2023/08/04 06:26:50;;;;;;;1.48;1.17;;;;;;;22.42;81.47;98998.81;5053503;28;20025;-81
2023/08/04 06:29:16;;;;;;;2.88;1.30;;;;;;;22.30;81.62;98973.56;5053703;28;20029;-82
2023/08/04 06:31:41;;;;;;;2.88;1.60;;;;;;;22.43;81.32;99008.41;5053743;28;20479;-82
2023/08/04 06:34:08;;;;;;;2.88;1.17;;;;;;;22.24;80.21;98979.50;5053844;28;20029;-82
2023/08/04 06:36:33;;;;;;;2.42;1.50;;;;;;;22.47;80.48;98983.22;5053936;28;20025;-82
2023/08/04 06:38:58;;;;;;;1.52;1.27;;;;;;;23.09;79.98;99010.16;5053413;28;20392;-82
2023/08/04 06:41:24;;;;;;;1.60;1.40;;;;;;;23.42;78.77;98970.22;5053458;28;20021;-81
2023/08/04 06:43:49;;;;;;;1.30;1.20;;;;;;;24.01;76.47;98978.66;5053442;28;20032;-82
2023/08/04 06:46:14;;;;;;;1.20;1.10;;;;;;;24.51;74.88;98982.75;5053987;28;20028;-81
2023/08/04 06:48:40;;;;;;;1.48;1.20;;;;;;;24.95;72.40;98984.75;5053255;28;20033;-82
2023/08/04 06:51:05;;;;;;;1.77;1.10;;;;;;;25.51;71.63;98997.72;5052994;28;20025;-82
2023/08/04 06:53:30;;;;;;;1.10;0.98;;;;;;;26.10;70.85;99003.03;5053460;28;20059;-82
2023/08/04 06:55:56;;;;;;;1.20;1.10;;;;;;;26.51;68.66;98998.00;5053035;28;20024;-82
2023/08/04 06:58:21;;;;;;;1.30;1.20;;;;;;;26.92;68.31;99008.03;5053261;28;20029;-82
2023/08/04 07:00:46;;;;;;;1.70;1.10;;;;;;;27.29;67.66;99014.13;5053220;28;20017;-82
2023/08/04 07:03:12;;;;;;;2.40;1.23;;;;;;;27.67;66.02;99005.72;5053374;28;20036;-82
2023/08/04 07:05:38;;;;;;;1.67;1.42;;;;;;;28.16;64.57;99021.66;5052540;28;20060;-82
2023/08/04 07:08:03;;;;;;;3.28;1.30;;;;;;;28.52;63.83;99025.88;5054268;28;20372;-82
2023/08/04 07:10:28;;;;;;;1.35;1.00;;;;;;;28.61;63.58;99035.38;5053770;28;20021;-82
2023/08/04 07:12:54;;;;;;;4.13;1.00;;;;;;;28.45;63.18;99009.00;5053534;28;20053;-82
2023/08/04 07:15:19;;;;;;;1.70;1.52;;;;;;;28.81;62.41;99041.63;5053920;28;20021;-82
2023/08/04 07:17:44;;;;;;;3.17;1.50;;;;;;;29.15;62.26;99010.31;5053822;28;20423;-82
2023/08/04 07:20:10;;;;;;;3.22;1.52;;;;;;;30.21;60.24;99028.09;5054021;28;20046;-82
2023/08/04 07:22:35;;;;;;;1.67;1.00;;;;;;;31.30;58.17;99019.75;5053789;28;20025;-82
2023/08/04 07:25:01;;;;;;;1.95;1.33;;;;;;;31.80;56.37;99021.53;5053201;28;20021;-82
2023/08/04 07:27:26;;;;;;;1.38;1.27;;;;;;;32.86;54.77;99032.84;5054422;28;20091;-82
2023/08/04 07:29:51;;;;;;;1.33;1.23;;;;;;;34.49;52.94;99045.47;5059443;28;20093;-82
2023/08/04 07:32:17;;;;;;;1.35;1.10;;;;;;;35.81;51.04;99029.75;5062860;28;20064;-82
2023/08/04 07:34:43;;;;;;;2.08;1.20;;;;;;;37.07;48.54;99008.88;5060220;28;20025;-82
2023/08/04 07:37:08;;;;;;;1.30;1.20;;;;;;;38.36;46.84;99048.22;5064711;28;20052;-83
2023/08/04 07:39:33;;;;;;;2.72;1.35;;;;;;;39.43;46.00;99056.50;5069792;28;20024;-81
2023/08/04 07:41:59;;;;;;;1.30;1.20;;;;;;;40.08;45.02;99025.81;5067584;28;20025;-81
2023/08/04 07:44:24;;;;;;;1.80;1.25;;;;;;;40.43;44.19;99056.75;5059589;28;20036;-81
2023/08/04 07:46:50;;;;;;;1.90;1.63;;;;;;;39.54;44.51;99024.59;5053713;28;20068;-82
2023/08/04 07:49:15;;;;;;;1.20;1.10;;;;;;;39.04;44.72;99047.25;5052857;28;20048;-82
2023/08/04 07:51:40;;;;;;;1.27;1.17;;;;;;;37.48;45.88;99052.66;5034821;28;20075;-82
2023/08/04 07:54:06;;;;;;;1.50;1.30;;;;;;;35.89;47.07;99044.75;5052545;28;20033;-86
2023/08/04 07:56:34;;;;;;;1.30;1.20;;;;;;;34.45;48.98;99062.38;5053173;28;20032;-86
2023/08/04 07:59:00;;;;;;;1.63;1.20;;;;;;;33.02;50.87;99041.09;5052773;28;20033;-85
2023/08/04 08:01:25;;;;;;;1.30;1.20;;;;;;;32.17;52.13;99043.91;5035570;28;20103;-86
2023/08/04 08:03:50;;;;;;;1.80;1.10;;;;;;;31.41;54.08;99068.53;5052815;28;20033;-86
2023/08/04 08:06:16;;;;;;;2.13;1.20;;;;;;;30.74;55.21;99068.16;5034679;28;20438;-86
2023/08/04 08:08:41;;;;;;;2.28;1.15;;;;;;;30.47;55.93;99070.97;5053386;28;20512;-85
2023/08/04 08:11:08;;;;;;;2.47;1.25;;;;;;;29.77;57.68;99057.34;5053201;28;20033;-85
2023/08/04 08:13:33;;;;;;;3.75;1.40;;;;;;;29.11;58.28;99049.31;5052387;28;20399;-86
2023/08/04 08:16:06;;;;;;;1.40;1.30;;;;;;;29.60;59.55;99071.41;5052853;28;20017;-84
2023/08/04 08:18:31;;;;;;;1.25;0.93;;;;;;;31.04;57.47;99041.47;5056409;28;20037;-85
2023/08/04 08:20:56;;;;;;;2.80;1.30;;;;;;;31.63;54.41;99052.78;5057703;28;20062;-86
2023/08/04 08:23:21;;;;;;;1.42;1.17;;;;;;;31.53;54.76;99064.06;5039482;28;20078;-85
2023/08/04 08:25:47;;;;;;;1.02;0.90;;;;;;;31.14;55.57;99066.03;5056951;28;20075;-84
2023/08/04 08:28:12;;;;;;;2.20;1.30;;;;;;;30.31;56.19;99087.56;5056231;28;20075;-82
2023/08/04 08:30:37;;;;;;;1.35;1.10;;;;;;;29.43;57.73;99079.84;5043065;28;20021;-82
2023/08/04 08:33:03;;;;;;;2.08;1.30;;;;;;;28.97;58.89;99061.88;5047841;28;20040;-81
2023/08/04 08:35:28;;;;;;;1.35;1.25;;;;;;;28.72;60.08;99068.81;5066038;28;20025;-81
2023/08/04 08:37:54;;;;;;;1.20;1.10;;;;;;;28.69;61.34;99071.91;5064303;28;20052;-82
2023/08/04 08:40:23;;;;;;;1.70;1.00;;;;;;;28.57;60.96;99039.53;5063015;28;20017;-82
2023/08/04 08:42:48;;;;;;;1.60;1.40;;;;;;;28.62;60.18;99055.00;5038742;28;20029;-82
2023/08/04 08:45:13;;;;;;;1.42;1.13;;;;;;;28.58;60.57;99071.47;5038257;28;20046;-82
2023/08/04 08:47:39;;;;;;;1.23;1.13;;;;;;;28.28;60.30;99084.31;5056216;28;20029;-82
2023/08/04 08:50:06;;;;;;;1.23;1.10;;;;;;;27.62;61.37;99051.78;5056991;28;20087;-82
2023/08/04 08:52:37;;;;;;;2.03;1.33;;;;;;;27.32;62.43;99060.00;5056701;28;20094;-82
2023/08/04 08:55:03;;;;;;;;;;;;;;;27.25;63.93;99069.81;5056844;28;20028;-82
2023/08/04 08:57:29;;;;;;;1.58;1.10;;;;;;;27.14;63.95;99067.69;5056589;28;20256;-82
2023/08/04 09:00:02;;;;;;;1.17;1.10;;;;;;;27.11;63.24;99070.72;5057265;28;20106;-82
2023/08/04 09:02:28;;;;;;;1.75;1.15;;;;;;;26.88;63.76;99052.19;5055197;28;20155;-82
2023/08/04 09:04:54;;;;;;;2.17;1.10;;;;;;;26.88;63.32;99068.22;5055560;28;20487;-83
2023/08/04 09:07:21;;;;;;;2.35;1.13;;;;;;;26.90;63.66;99071.53;5055115;28;20031;-83
2023/08/04 09:09:47;;;;;;;1.30;1.20;;;;;;;26.82;63.91;99077.81;5055365;28;20051;-83
2023/08/04 09:12:12;;;;;;;2.85;1.38;;;;;;;26.74;63.48;99077.94;5055067;28;20535;-83
2023/08/04 09:14:48;;;;;;;1.90;1.13;;;;;;;26.91;64.51;99089.22;5055708;28;20049;-82
2023/08/04 09:17:38;;;;;;;1.25;1.10;;;;;;;26.88;64.82;99065.53;5055020;28;20353;-82
2023/08/04 09:20:09;;;;;;;1.40;1.20;;;;;;;26.91;64.17;99056.31;5056058;28;20029;-83
2023/08/04 09:22:39;;;;;;;2.50;1.40;;;;;;;27.17;62.87;99090.53;5055169;28;20025;-83
2023/08/04 09:25:05;;;;;;;2.17;1.30;;;;;;;27.16;63.96;99091.53;5055216;28;20024;-82
2023/08/04 09:27:32;;;;;;;1.50;0.90;;;;;;;27.19;64.22;99092.00;5055462;28;20538;-83
2023/08/04 09:29:59;;;;;;;1.25;1.10;;;;;;;26.95;63.79;99065.63;5053540;28;20025;-82
2023/08/04 09:32:24;;;;;;;1.20;1.10;;;;;;;26.97;63.93;99083.13;5054520;28;20506;-81
2023/08/04 09:35:06;;;;;;;2.60;1.02;;;;;;;26.90;63.66;99090.25;5054533;28;20037;-81
2023/08/04 09:37:36;;;;;;;1.10;1.00;;;;;;;26.91;63.35;99091.06;5054990;28;20033;-81
2023/08/04 09:40:04;;;;;;;1.55;1.42;;;;;;;26.89;63.96;99093.94;5054874;28;20476;-81
2023/08/04 09:42:35;;;;;;;1.60;1.17;;;;;;;26.81;63.96;99099.41;5054551;28;20104;-81
2023/08/04 09:45:01;;;;;;;1.17;1.08;;;;;;;26.66;62.61;99062.03;5053946;28;20041;-81
2023/08/04 09:47:27;;;;;;;2.05;1.17;;;;;;;26.75;62.45;99071.56;5054428;28;20028;-81
2023/08/04 09:49:55;;;;;;;1.00;0.88;;;;;;;26.86;62.43;99068.41;5054066;28;20472;-81
2023/08/04 09:52:27;;;;;;;0.98;0.98;;;;;;;26.99;62.06;99069.56;5054120;28;20031;-81
2023/08/04 09:54:54;;;;;;;1.73;1.05;;;;;;;26.95;61.01;99074.47;5054108;28;20071;-81
2023/08/04 09:57:22;;;;;;;3.05;1.05;;;;;;;26.97;62.69;99075.09;5054077;28;20033;-81
2023/08/04 09:59:48;;;;;;;1.35;1.10;;;;;;;27.20;62.40;99093.63;5054536;28;20433;-81
2023/08/04 10:02:14;;;;;;;2.67;1.38;;;;;;;27.02;62.71;99074.53;5054052;28;20056;-81
2023/08/04 10:04:40;;;;;;;3.28;1.35;;;;;;;26.95;62.56;99057.59;5054241;28;20064;-81
2023/08/04 10:07:08;;;;;;;2.50;1.17;;;;;;;27.06;61.77;99068.59;5054201;28;20032;-81
2023/08/04 10:09:34;;;;;;;1.20;1.10;;;;;;;27.09;61.48;99086.09;5054481;28;20021;-81
2023/08/04 10:12:00;;;;;;;6.07;2.08;;;;;;;27.04;61.81;99085.84;5054267;28;20033;-80
2023/08/04 10:14:26;;;;;;;2.10;1.20;;;;;;;26.96;62.70;99081.44;5054002;28;20382;-81
2023/08/04 10:16:52;;;;;;;3.70;1.52;;;;;;;27.06;62.62;99084.66;5054305;28;20036;-81
2023/08/04 10:19:18;;;;;;;1.30;1.20;;;;;;;27.13;62.27;99084.72;5053998;28;20384;-80
2023/08/04 10:21:44;;;;;;;3.95;1.10;;;;;;;27.04;62.18;99091.19;5053994;28;20025;-81
2023/08/04 10:24:11;;;;;;;4.95;1.23;;;;;;;26.93;61.71;99073.00;5053773;28;20041;-81
2023/08/04 10:26:45;;;;;;;4.90;1.40;;;;;;;27.10;61.74;99101.16;5053726;28;20021;-82
2023/08/04 10:29:11;;;;;;;1.67;1.45;;;;;;;27.04;61.62;99069.81;5054082;28;20039;-81
2023/08/04 10:31:57;;;;;;;1.95;1.10;;;;;;;27.30;62.47;99083.44;5054633;28;20103;-81
2023/08/04 10:34:33;;;;;;;1.20;1.10;;;;;;;27.25;62.32;99048.44;5053785;28;20053;-81
2023/08/04 10:37:16;;;;;;;1.55;1.02;;;;;;;27.34;61.05;99063.31;5053657;28;20609;-81
2023/08/04 10:39:46;;;;;;;1.27;1.20;;;;;;;27.14;61.45;99027.59;5053337;28;20033;-81
2023/08/04 10:42:11;;;;;;;1.55;1.10;;;;;;;27.43;61.42;99085.41;5053720;28;20029;-81
2023/08/04 10:45:03;;;;;;;1.95;1.27;;;;;;;27.44;60.15;99091.59;5053294;28;20057;-81
2023/08/04 10:47:32;;;;;;;4.82;1.50;;;;;;;27.40;59.94;99096.50;5055583;28;20024;-81
2023/08/04 10:50:16;;;;;;;1.35;1.25;;;;;;;27.32;60.71;99085.94;5054026;28;20025;-82
2023/08/04 10:52:42;;;;;;;1.20;1.10;;;;;;;27.36;60.40;99081.84;5053563;28;20376;-82
2023/08/04 10:55:11;;;;;;;2.50;1.00;;;;;;;27.17;59.62;99063.78;5053310;28;20025;-81
2023/08/04 10:57:38;;;;;;;2.15;1.30;;;;;;;27.15;60.44;99085.38;5053286;28;20021;-81
2023/08/04 11:00:08;;;;;;;1.55;1.05;;;;;;;27.07;60.19;99090.81;5053728;28;20029;-81
2023/08/04 11:02:35;;;;;;;1.35;1.13;;;;;;;26.85;60.53;99060.59;5053418;28;20025;-81
2023/08/04 11:05:03;;;;;;;0.85;0.85;;;;;;;26.87;60.53;99051.34;5053142;28;20079;-81
2023/08/04 11:07:29;;;;;;;1.55;1.00;;;;;;;26.94;61.42;99054.09;5053901;28;20108;-81
2023/08/04 11:09:54;;;;;;;1.50;1.40;;;;;;;27.13;60.99;99066.00;5053322;28;20031;-81
2023/08/04 11:12:20;;;;;;;3.08;1.30;;;;;;;27.17;61.50;99074.47;5052715;28;20025;-81
2023/08/04 11:14:46;;;;;;;1.25;1.13;;;;;;;27.20;60.92;99064.22;5052888;28;20033;-81
2023/08/04 11:17:15;;;;;;;1.10;1.10;;;;;;;27.26;60.63;99084.00;5052507;28;20071;-82
2023/08/04 11:19:45;;;;;;;1.35;1.25;;;;;;;27.18;61.10;99074.31;5052565;28;20032;-82
2023/08/04 11:22:17;;;;;;;1.48;1.20;;;;;;;27.20;59.82;99096.31;5052272;28;20037;-82
2023/08/04 11:24:42;;;;;;;;;;;;;;;27.25;59.81;99106.44;5052856;28;20384;-81
2023/08/04 11:27:09;;;;;;;1.15;1.00;;;;;;;27.29;59.98;99111.19;5052314;28;19915;-81
2023/08/04 11:29:36;;;;;;;1.90;1.30;;;;;;;27.24;59.42;99075.38;5050851;28;20117;-82